sensor_id;sensor_type;location;lat;lon;timestamp;temperature;humidity
15103;DHT22;7652;53.584;9.998;2023-07-31T00:02:23;16.10;99.90
15103;DHT22;7652;53.584;9.998;2023-07-31T00:05:45;16.10;99.90
15103;DHT22;7652;53.584;9.998;2023-07-31T00:09:07;16.10;99.90
15103;DHT22;7652;53.584;9.998;2023-07-31T00:12:29;16.20;99.90
15103;DHT22;7652;53.584;9.998;2023-07-31T00:15:50;16.30;99.90
15103;DHT22;7652;53.584;9.998;2023-07-31T00:19:12;16.30;99.90
15103;DHT22;7652;53.584;9.998;2023-07-31T00:22:33;16.30;99.90
15103;DHT22;7652;53.584;9.998;2023-07-31T00:25:57;16.50;99.90
15103;DHT22;7652;53.584;9.998;2023-07-31T00:29:19;16.50;99.90
15103;DHT22;7652;53.584;9.998;2023-07-31T00:32:41;16.50;99.90
15103;DHT22;7652;53.584;9.998;2023-07-31T00:36:02;16.50;99.90
15103;DHT22;7652;53.584;9.998;2023-07-31T00:39:24;16.60;99.90
15103;DHT22;7652;53.584;9.998;2023-07-31T00:42:47;16.60;99.90
15103;DHT22;7652;53.584;9.998;2023-07-31T00:46:08;16.60;99.90
15103;DHT22;7652;53.584;9.998;2023-07-31T00:49:29;16.60;99.90
15103;DHT22;7652;53.584;9.998;2023-07-31T00:52:52;16.60;99.90
15103;DHT22;7652;53.584;9.998;2023-07-31T00:56:13;16.70;99.90
15103;DHT22;7652;53.584;9.998;2023-07-31T00:59:36;16.60;99.90
15103;DHT22;7652;53.584;9.998;2023-07-31T01:02:58;16.60;99.90
15103;DHT22;7652;53.584;9.998;2023-07-31T01:06:27;16.50;99.90
15103;DHT22;7652;53.584;9.998;2023-07-31T01:09:56;16.60;99.90
15103;DHT22;7652;53.584;9.998;2023-07-31T01:13:21;16.60;99.90
15103;DHT22;7652;53.584;9.998;2023-07-31T01:16:45;16.50;99.90
15103;DHT22;7652;53.584;9.998;2023-07-31T01:20:11;16.50;99.90
15103;DHT22;7652;53.584;9.998;2023-07-31T01:23:51;16.50;99.90
15103;DHT22;7652;53.584;9.998;2023-07-31T01:27:23;16.50;99.90
15103;DHT22;7652;53.584;9.998;2023-07-31T01:30:48;16.50;99.90
15103;DHT22;7652;53.584;9.998;2023-07-31T01:34:10;16.50;99.90
15103;DHT22;7652;53.584;9.998;2023-07-31T01:37:32;16.50;99.90
15103;DHT22;7652;53.584;9.998;2023-07-31T01:40:54;16.50;99.90
15103;DHT22;7652;53.584;9.998;2023-07-31T01:44:16;16.50;99.90
15103;DHT22;7652;53.584;9.998;2023-07-31T01:47:38;16.50;99.90
15103;DHT22;7652;53.584;9.998;2023-07-31T01:51:00;16.50;99.90
15103;DHT22;7652;53.584;9.998;2023-07-31T01:54:21;16.40;99.90
15103;DHT22;7652;53.584;9.998;2023-07-31T01:57:43;16.40;99.90
15103;DHT22;7652;53.584;9.998;2023-07-31T02:01:05;16.50;99.90
15103;DHT22;7652;53.584;9.998;2023-07-31T02:04:27;16.40;99.90
15103;DHT22;7652;53.584;9.998;2023-07-31T02:07:49;16.50;99.90
15103;DHT22;7652;53.584;9.998;2023-07-31T02:11:10;16.40;99.90
15103;DHT22;7652;53.584;9.998;2023-07-31T02:14:32;16.50;99.90
15103;DHT22;7652;53.584;9.998;2023-07-31T02:17:54;16.50;99.90
15103;DHT22;7652;53.584;9.998;2023-07-31T02:21:16;16.60;99.90
15103;DHT22;7652;53.584;9.998;2023-07-31T02:24:37;16.60;99.90
15103;DHT22;7652;53.584;9.998;2023-07-31T02:27:59;16.60;99.90
15103;DHT22;7652;53.584;9.998;2023-07-31T02:31:20;16.60;99.90
15103;DHT22;7652;53.584;9.998;2023-07-31T02:34:44;16.60;99.90
15103;DHT22;7652;53.584;9.998;2023-07-31T02:38:05;16.60;99.90
15103;DHT22;7652;53.584;9.998;2023-07-31T02:41:26;16.60;99.90
15103;DHT22;7652;53.584;9.998;2023-07-31T02:44:48;16.60;99.90
15103;DHT22;7652;53.584;9.998;2023-07-31T02:48:12;16.60;99.90
15103;DHT22;7652;53.584;9.998;2023-07-31T02:51:35;16.60;99.90
15103;DHT22;7652;53.584;9.998;2023-07-31T02:54:57;16.60;99.90
15103;DHT22;7652;53.584;9.998;2023-07-31T02:58:18;16.60;99.90
15103;DHT22;7652;53.584;9.998;2023-07-31T03:01:40;16.60;99.90
15103;DHT22;7652;53.584;9.998;2023-07-31T03:05:02;16.60;99.90
15103;DHT22;7652;53.584;9.998;2023-07-31T03:08:24;16.60;99.90
15103;DHT22;7652;53.584;9.998;2023-07-31T03:11:46;16.60;99.90
15103;DHT22;7652;53.584;9.998;2023-07-31T03:15:09;16.60;99.90
15103;DHT22;7652;53.584;9.998;2023-07-31T03:18:30;16.60;99.90
15103;DHT22;7652;53.584;9.998;2023-07-31T03:21:52;16.60;99.90
15103;DHT22;7652;53.584;9.998;2023-07-31T03:25:14;16.60;99.90
15103;DHT22;7652;53.584;9.998;2023-07-31T03:28:36;16.60;99.90
15103;DHT22;7652;53.584;9.998;2023-07-31T03:31:58;16.60;99.90
15103;DHT22;7652;53.584;9.998;2023-07-31T03:35:20;16.60;99.90
15103;DHT22;7652;53.584;9.998;2023-07-31T03:38:42;16.50;99.90
15103;DHT22;7652;53.584;9.998;2023-07-31T03:42:05;16.60;99.90
15103;DHT22;7652;53.584;9.998;2023-07-31T03:45:27;16.60;99.90
15103;DHT22;7652;53.584;9.998;2023-07-31T03:48:49;16.60;99.90
15103;DHT22;7652;53.584;9.998;2023-07-31T03:52:10;16.70;99.90
15103;DHT22;7652;53.584;9.998;2023-07-31T03:55:32;16.70;99.90
15103;DHT22;7652;53.584;9.998;2023-07-31T03:58:55;16.70;99.90
15103;DHT22;7652;53.584;9.998;2023-07-31T04:02:16;16.70;99.90
15103;DHT22;7652;53.584;9.998;2023-07-31T04:05:39;16.70;99.90
15103;DHT22;7652;53.584;9.998;2023-07-31T04:09:01;16.70;99.90
15103;DHT22;7652;53.584;9.998;2023-07-31T04:12:23;16.70;99.90
15103;DHT22;7652;53.584;9.998;2023-07-31T04:15:49;16.70;99.90
15103;DHT22;7652;53.584;9.998;2023-07-31T04:19:11;16.70;99.90
15103;DHT22;7652;53.584;9.998;2023-07-31T04:22:36;16.70;99.90
15103;DHT22;7652;53.584;9.998;2023-07-31T04:25:58;16.70;99.90
15103;DHT22;7652;53.584;9.998;2023-07-31T04:29:19;16.70;99.90
15103;DHT22;7652;53.584;9.998;2023-07-31T04:32:42;16.60;99.90
15103;DHT22;7652;53.584;9.998;2023-07-31T04:36:05;16.60;99.90
15103;DHT22;7652;53.584;9.998;2023-07-31T04:39:26;16.60;99.90
15103;DHT22;7652;53.584;9.998;2023-07-31T04:42:47;16.60;99.90
15103;DHT22;7652;53.584;9.998;2023-07-31T04:46:09;16.60;99.90
15103;DHT22;7652;53.584;9.998;2023-07-31T04:49:32;16.50;99.90
15103;DHT22;7652;53.584;9.998;2023-07-31T04:52:54;16.60;99.90
15103;DHT22;7652;53.584;9.998;2023-07-31T04:56:16;16.50;99.90
15103;DHT22;7652;53.584;9.998;2023-07-31T04:59:37;16.40;99.90
15103;DHT22;7652;53.584;9.998;2023-07-31T05:02:59;16.40;99.90
15103;DHT22;7652;53.584;9.998;2023-07-31T05:06:22;16.30;99.90
15103;DHT22;7652;53.584;9.998;2023-07-31T05:09:44;16.30;99.90
15103;DHT22;7652;53.584;9.998;2023-07-31T05:13:05;16.40;99.90
15103;DHT22;7652;53.584;9.998;2023-07-31T05:16:27;16.30;99.90
15103;DHT22;7652;53.584;9.998;2023-07-31T05:19:50;16.30;99.90
15103;DHT22;7652;53.584;9.998;2023-07-31T05:23:12;16.30;99.90
15103;DHT22;7652;53.584;9.998;2023-07-31T05:26:34;16.40;99.90
15103;DHT22;7652;53.584;9.998;2023-07-31T05:29:56;16.50;99.90
15103;DHT22;7652;53.584;9.998;2023-07-31T05:33:18;16.50;99.90
15103;DHT22;7652;53.584;9.998;2023-07-31T05:36:39;16.50;99.90
15103;DHT22;7652;53.584;9.998;2023-07-31T05:40:04;16.40;99.90
15103;DHT22;7652;53.584;9.998;2023-07-31T05:43:25;16.50;99.90
15103;DHT22;7652;53.584;9.998;2023-07-31T05:46:47;16.50;99.90
15103;DHT22;7652;53.584;9.998;2023-07-31T05:50:09;16.50;99.90
15103;DHT22;7652;53.584;9.998;2023-07-31T05:53:31;16.60;99.90
15103;DHT22;7652;53.584;9.998;2023-07-31T05:56:54;16.50;99.90
15103;DHT22;7652;53.584;9.998;2023-07-31T06:00:15;16.50;99.90
15103;DHT22;7652;53.584;9.998;2023-07-31T06:03:37;16.50;99.90
15103;DHT22;7652;53.584;9.998;2023-07-31T06:07:00;16.50;99.90
15103;DHT22;7652;53.584;9.998;2023-07-31T06:10:22;16.40;99.90
15103;DHT22;7652;53.584;9.998;2023-07-31T06:13:44;16.40;99.90
15103;DHT22;7652;53.584;9.998;2023-07-31T06:17:08;16.40;99.90
15103;DHT22;7652;53.584;9.998;2023-07-31T06:20:29;16.40;99.90
15103;DHT22;7652;53.584;9.998;2023-07-31T06:23:51;16.40;99.90
15103;DHT22;7652;53.584;9.998;2023-07-31T06:27:12;16.50;99.90
15103;DHT22;7652;53.584;9.998;2023-07-31T06:30:35;16.50;99.90
15103;DHT22;7652;53.584;9.998;2023-07-31T06:33:57;16.50;99.90
15103;DHT22;7652;53.584;9.998;2023-07-31T06:37:18;16.50;99.90
15103;DHT22;7652;53.584;9.998;2023-07-31T06:40:40;16.50;99.90
15103;DHT22;7652;53.584;9.998;2023-07-31T06:44:01;16.50;99.90
15103;DHT22;7652;53.584;9.998;2023-07-31T06:47:24;16.40;99.90
15103;DHT22;7652;53.584;9.998;2023-07-31T06:50:46;16.40;99.90
15103;DHT22;7652;53.584;9.998;2023-07-31T06:54:08;16.40;99.90
15103;DHT22;7652;53.584;9.998;2023-07-31T06:57:30;16.40;99.90
15103;DHT22;7652;53.584;9.998;2023-07-31T07:00:51;16.40;99.90
15103;DHT22;7652;53.584;9.998;2023-07-31T07:04:14;16.40;99.90
15103;DHT22;7652;53.584;9.998;2023-07-31T07:07:36;16.40;99.90
15103;DHT22;7652;53.584;9.998;2023-07-31T07:10:57;16.30;99.90
15103;DHT22;7652;53.584;9.998;2023-07-31T07:14:19;16.30;99.90
15103;DHT22;7652;53.584;9.998;2023-07-31T07:17:42;16.30;99.90
15103;DHT22;7652;53.584;9.998;2023-07-31T07:21:04;16.30;99.90
15103;DHT22;7652;53.584;9.998;2023-07-31T07:24:26;16.30;99.90
15103;DHT22;7652;53.584;9.998;2023-07-31T07:27:48;16.20;99.90
15103;DHT22;7652;53.584;9.998;2023-07-31T07:31:09;16.20;99.90
15103;DHT22;7652;53.584;9.998;2023-07-31T07:34:31;16.10;99.90
15103;DHT22;7652;53.584;9.998;2023-07-31T07:37:53;16.10;99.90
15103;DHT22;7652;53.584;9.998;2023-07-31T07:41:15;16.10;99.90
15103;DHT22;7652;53.584;9.998;2023-07-31T07:44:36;16.10;99.90
15103;DHT22;7652;53.584;9.998;2023-07-31T07:47:58;16.10;99.90
15103;DHT22;7652;53.584;9.998;2023-07-31T07:51:20;16.10;99.90
15103;DHT22;7652;53.584;9.998;2023-07-31T07:54:42;16.20;99.90
15103;DHT22;7652;53.584;9.998;2023-07-31T07:58:04;16.20;99.90
15103;DHT22;7652;53.584;9.998;2023-07-31T08:01:25;16.20;99.90
15103;DHT22;7652;53.584;9.998;2023-07-31T08:04:47;16.30;99.90
15103;DHT22;7652;53.584;9.998;2023-07-31T08:08:13;16.30;99.90
15103;DHT22;7652;53.584;9.998;2023-07-31T08:11:36;16.40;99.90
15103;DHT22;7652;53.584;9.998;2023-07-31T08:14:58;16.50;99.90
15103;DHT22;7652;53.584;9.998;2023-07-31T08:18:21;16.50;99.90
15103;DHT22;7652;53.584;9.998;2023-07-31T08:21:42;16.60;99.90
15103;DHT22;7652;53.584;9.998;2023-07-31T08:25:05;16.60;99.90
15103;DHT22;7652;53.584;9.998;2023-07-31T08:28:28;16.70;99.90
15103;DHT22;7652;53.584;9.998;2023-07-31T08:31:50;16.70;99.90
15103;DHT22;7652;53.584;9.998;2023-07-31T08:35:11;16.80;99.90
15103;DHT22;7652;53.584;9.998;2023-07-31T08:38:33;16.90;99.90
15103;DHT22;7652;53.584;9.998;2023-07-31T08:41:58;17.00;99.90
15103;DHT22;7652;53.584;9.998;2023-07-31T08:45:21;17.10;99.90
15103;DHT22;7652;53.584;9.998;2023-07-31T08:48:42;17.10;99.90
15103;DHT22;7652;53.584;9.998;2023-07-31T08:52:06;17.30;99.90
15103;DHT22;7652;53.584;9.998;2023-07-31T08:55:28;17.40;99.90
15103;DHT22;7652;53.584;9.998;2023-07-31T08:58:50;17.40;99.90
15103;DHT22;7652;53.584;9.998;2023-07-31T09:02:15;17.40;99.90
15103;DHT22;7652;53.584;9.998;2023-07-31T09:05:41;17.50;99.90
15103;DHT22;7652;53.584;9.998;2023-07-31T09:09:03;17.50;99.90
15103;DHT22;7652;53.584;9.998;2023-07-31T09:12:25;17.50;99.90
15103;DHT22;7652;53.584;9.998;2023-07-31T09:15:47;17.50;99.90
15103;DHT22;7652;53.584;9.998;2023-07-31T09:19:10;17.60;99.90
15103;DHT22;7652;53.584;9.998;2023-07-31T09:22:34;17.50;99.90
15103;DHT22;7652;53.584;9.998;2023-07-31T09:25:56;17.50;99.90
15103;DHT22;7652;53.584;9.998;2023-07-31T09:29:19;17.40;99.90
15103;DHT22;7652;53.584;9.998;2023-07-31T09:32:40;17.40;99.90
15103;DHT22;7652;53.584;9.998;2023-07-31T09:36:04;17.40;99.90
15103;DHT22;7652;53.584;9.998;2023-07-31T09:39:26;17.50;99.90
15103;DHT22;7652;53.584;9.998;2023-07-31T09:42:49;17.50;99.90
15103;DHT22;7652;53.584;9.998;2023-07-31T09:46:13;17.60;99.90
15103;DHT22;7652;53.584;9.998;2023-07-31T09:49:35;17.60;99.90
15103;DHT22;7652;53.584;9.998;2023-07-31T09:52:58;17.80;99.90
15103;DHT22;7652;53.584;9.998;2023-07-31T09:56:21;17.80;99.90
15103;DHT22;7652;53.584;9.998;2023-07-31T09:59:45;17.90;99.90
15103;DHT22;7652;53.584;9.998;2023-07-31T10:03:09;17.80;99.90
15103;DHT22;7652;53.584;9.998;2023-07-31T10:06:31;17.80;99.90
15103;DHT22;7652;53.584;9.998;2023-07-31T10:09:56;17.80;99.90
15103;DHT22;7652;53.584;9.998;2023-07-31T10:13:21;17.70;99.90
15103;DHT22;7652;53.584;9.998;2023-07-31T10:16:43;17.70;99.90
15103;DHT22;7652;53.584;9.998;2023-07-31T10:20:07;17.60;99.90
15103;DHT22;7652;53.584;9.998;2023-07-31T10:23:28;17.60;99.90
15103;DHT22;7652;53.584;9.998;2023-07-31T10:26:52;17.50;99.90
15103;DHT22;7652;53.584;9.998;2023-07-31T10:30:16;17.40;99.90
15103;DHT22;7652;53.584;9.998;2023-07-31T10:33:40;17.50;99.90
15103;DHT22;7652;53.584;9.998;2023-07-31T10:37:19;17.40;99.90
15103;DHT22;7652;53.584;9.998;2023-07-31T10:40:41;17.40;99.90
15103;DHT22;7652;53.584;9.998;2023-07-31T10:44:07;17.40;99.90
15103;DHT22;7652;53.584;9.998;2023-07-31T10:47:28;17.40;99.90
15103;DHT22;7652;53.584;9.998;2023-07-31T10:50:51;17.40;99.90
15103;DHT22;7652;53.584;9.998;2023-07-31T10:54:15;17.40;99.90
15103;DHT22;7652;53.584;9.998;2023-07-31T10:57:38;17.30;99.90
15103;DHT22;7652;53.584;9.998;2023-07-31T11:01:02;17.30;99.90
15103;DHT22;7652;53.584;9.998;2023-07-31T11:04:25;17.20;99.90
15103;DHT22;7652;53.584;9.998;2023-07-31T11:07:47;17.20;99.90
15103;DHT22;7652;53.584;9.998;2023-07-31T11:11:11;17.20;99.90
15103;DHT22;7652;53.584;9.998;2023-07-31T11:14:32;17.20;99.90
15103;DHT22;7652;53.584;9.998;2023-07-31T11:17:55;17.30;99.90
15103;DHT22;7652;53.584;9.998;2023-07-31T11:21:20;17.20;99.90
15103;DHT22;7652;53.584;9.998;2023-07-31T11:24:42;17.30;99.90
15103;DHT22;7652;53.584;9.998;2023-07-31T11:28:05;17.30;99.90
15103;DHT22;7652;53.584;9.998;2023-07-31T11:31:27;17.30;99.90
15103;DHT22;7652;53.584;9.998;2023-07-31T11:34:54;17.30;99.90
15103;DHT22;7652;53.584;9.998;2023-07-31T11:38:21;17.30;99.90
15103;DHT22;7652;53.584;9.998;2023-07-31T11:41:43;17.30;99.90
15103;DHT22;7652;53.584;9.998;2023-07-31T11:45:06;17.20;99.90
15103;DHT22;7652;53.584;9.998;2023-07-31T11:48:29;17.20;99.90
15103;DHT22;7652;53.584;9.998;2023-07-31T11:51:55;17.30;99.90
15103;DHT22;7652;53.584;9.998;2023-07-31T11:55:17;17.10;99.90
15103;DHT22;7652;53.584;9.998;2023-07-31T11:58:39;17.00;99.90
15103;DHT22;7652;53.584;9.998;2023-07-31T12:02:02;16.90;99.90
15103;DHT22;7652;53.584;9.998;2023-07-31T12:05:24;16.80;99.90
15103;DHT22;7652;53.584;9.998;2023-07-31T12:08:47;16.90;99.90
15103;DHT22;7652;53.584;9.998;2023-07-31T12:12:09;16.90;99.90
15103;DHT22;7652;53.584;9.998;2023-07-31T12:15:35;16.90;99.90
15103;DHT22;7652;53.584;9.998;2023-07-31T12:18:57;16.80;99.90
15103;DHT22;7652;53.584;9.998;2023-07-31T12:22:20;16.80;99.90
15103;DHT22;7652;53.584;9.998;2023-07-31T12:25:43;16.80;99.90
15103;DHT22;7652;53.584;9.998;2023-07-31T12:29:07;16.90;99.90
15103;DHT22;7652;53.584;9.998;2023-07-31T12:32:30;16.70;99.90
15103;DHT22;7652;53.584;9.998;2023-07-31T12:35:53;16.80;99.90
15103;DHT22;7652;53.584;9.998;2023-07-31T12:39:15;16.80;99.90
15103;DHT22;7652;53.584;9.998;2023-07-31T12:42:38;16.80;99.90
15103;DHT22;7652;53.584;9.998;2023-07-31T12:46:00;16.80;99.90
15103;DHT22;7652;53.584;9.998;2023-07-31T12:49:21;16.90;99.90
15103;DHT22;7652;53.584;9.998;2023-07-31T12:52:43;17.00;99.90
15103;DHT22;7652;53.584;9.998;2023-07-31T12:56:05;17.00;99.90
15103;DHT22;7652;53.584;9.998;2023-07-31T12:59:27;16.90;99.90
15103;DHT22;7652;53.584;9.998;2023-07-31T13:02:49;16.80;99.90
15103;DHT22;7652;53.584;9.998;2023-07-31T13:06:11;17.00;99.90
15103;DHT22;7652;53.584;9.998;2023-07-31T13:09:33;17.10;99.90
15103;DHT22;7652;53.584;9.998;2023-07-31T13:12:54;17.20;99.90
15103;DHT22;7652;53.584;9.998;2023-07-31T13:16:17;17.00;99.90
15103;DHT22;7652;53.584;9.998;2023-07-31T13:19:38;17.20;99.90
15103;DHT22;7652;53.584;9.998;2023-07-31T13:23:00;16.90;99.90
15103;DHT22;7652;53.584;9.998;2023-07-31T13:26:22;17.00;99.90
15103;DHT22;7652;53.584;9.998;2023-07-31T13:29:43;16.90;99.90
15103;DHT22;7652;53.584;9.998;2023-07-31T13:33:06;16.90;99.90
15103;DHT22;7652;53.584;9.998;2023-07-31T13:36:44;16.90;99.90
15103;DHT22;7652;53.584;9.998;2023-07-31T13:40:07;17.10;99.90
15103;DHT22;7652;53.584;9.998;2023-07-31T13:43:29;17.20;99.90
15103;DHT22;7652;53.584;9.998;2023-07-31T13:46:51;17.30;99.90
15103;DHT22;7652;53.584;9.998;2023-07-31T13:50:14;17.30;99.90
15103;DHT22;7652;53.584;9.998;2023-07-31T13:53:37;17.20;99.90
15103;DHT22;7652;53.584;9.998;2023-07-31T13:56:58;17.30;99.90
15103;DHT22;7652;53.584;9.998;2023-07-31T14:00:20;17.20;99.90
15103;DHT22;7652;53.584;9.998;2023-07-31T14:03:42;17.30;99.90
15103;DHT22;7652;53.584;9.998;2023-07-31T14:07:07;17.30;99.90
15103;DHT22;7652;53.584;9.998;2023-07-31T14:10:29;17.30;99.90
15103;DHT22;7652;53.584;9.998;2023-07-31T14:13:50;17.40;99.90
15103;DHT22;7652;53.584;9.998;2023-07-31T14:17:13;17.40;99.90
15103;DHT22;7652;53.584;9.998;2023-07-31T14:20:35;17.30;99.90
15103;DHT22;7652;53.584;9.998;2023-07-31T14:23:58;17.30;99.90
15103;DHT22;7652;53.584;9.998;2023-07-31T14:27:19;17.30;99.90
15103;DHT22;7652;53.584;9.998;2023-07-31T14:30:41;17.30;99.90
15103;DHT22;7652;53.584;9.998;2023-07-31T14:34:03;17.00;99.90
15103;DHT22;7652;53.584;9.998;2023-07-31T14:37:26;17.00;99.90
15103;DHT22;7652;53.584;9.998;2023-07-31T14:40:49;17.00;99.90
15103;DHT22;7652;53.584;9.998;2023-07-31T14:44:11;16.90;99.90
15103;DHT22;7652;53.584;9.998;2023-07-31T14:47:33;17.10;99.90
15103;DHT22;7652;53.584;9.998;2023-07-31T14:50:56;17.20;99.90
15103;DHT22;7652;53.584;9.998;2023-07-31T14:54:17;17.20;99.90
15103;DHT22;7652;53.584;9.998;2023-07-31T14:57:40;17.30;99.90
15103;DHT22;7652;53.584;9.998;2023-07-31T15:01:02;17.30;99.90
15103;DHT22;7652;53.584;9.998;2023-07-31T15:04:23;17.40;99.90
15103;DHT22;7652;53.584;9.998;2023-07-31T15:07:45;17.50;99.90
15103;DHT22;7652;53.584;9.998;2023-07-31T15:11:06;17.60;99.90
15103;DHT22;7652;53.584;9.998;2023-07-31T15:14:30;17.70;99.90
15103;DHT22;7652;53.584;9.998;2023-07-31T15:17:52;17.70;99.90
15103;DHT22;7652;53.584;9.998;2023-07-31T15:21:14;17.80;99.90
15103;DHT22;7652;53.584;9.998;2023-07-31T15:24:36;17.80;99.90
15103;DHT22;7652;53.584;9.998;2023-07-31T15:27:58;17.80;99.90
15103;DHT22;7652;53.584;9.998;2023-07-31T15:31:20;17.80;99.90
15103;DHT22;7652;53.584;9.998;2023-07-31T15:34:43;17.90;99.90
15103;DHT22;7652;53.584;9.998;2023-07-31T15:38:04;17.90;99.90
15103;DHT22;7652;53.584;9.998;2023-07-31T15:41:26;17.90;99.90
15103;DHT22;7652;53.584;9.998;2023-07-31T15:44:49;18.00;99.90
15103;DHT22;7652;53.584;9.998;2023-07-31T15:48:12;18.00;99.90
15103;DHT22;7652;53.584;9.998;2023-07-31T15:51:34;18.00;99.90
15103;DHT22;7652;53.584;9.998;2023-07-31T15:54:55;17.90;99.90
15103;DHT22;7652;53.584;9.998;2023-07-31T15:58:16;17.90;99.90
15103;DHT22;7652;53.584;9.998;2023-07-31T16:01:38;17.80;99.90
15103;DHT22;7652;53.584;9.998;2023-07-31T16:05:01;17.90;99.90
15103;DHT22;7652;53.584;9.998;2023-07-31T16:08:22;17.90;99.90
15103;DHT22;7652;53.584;9.998;2023-07-31T16:11:44;17.90;99.90
15103;DHT22;7652;53.584;9.998;2023-07-31T16:15:08;17.90;99.90
15103;DHT22;7652;53.584;9.998;2023-07-31T16:18:29;18.00;99.90
15103;DHT22;7652;53.584;9.998;2023-07-31T16:21:52;18.00;99.90
15103;DHT22;7652;53.584;9.998;2023-07-31T16:25:14;17.90;99.90
15103;DHT22;7652;53.584;9.998;2023-07-31T16:28:35;17.90;99.90
15103;DHT22;7652;53.584;9.998;2023-07-31T16:31:57;17.90;99.90
15103;DHT22;7652;53.584;9.998;2023-07-31T16:35:18;17.90;99.90
15103;DHT22;7652;53.584;9.998;2023-07-31T16:38:41;17.90;99.90
15103;DHT22;7652;53.584;9.998;2023-07-31T16:42:03;17.90;99.90
15103;DHT22;7652;53.584;9.998;2023-07-31T16:45:24;17.90;99.90
15103;DHT22;7652;53.584;9.998;2023-07-31T16:48:46;17.80;99.90
15103;DHT22;7652;53.584;9.998;2023-07-31T16:52:08;17.80;99.90
15103;DHT22;7652;53.584;9.998;2023-07-31T16:55:31;17.80;99.90
15103;DHT22;7652;53.584;9.998;2023-07-31T16:58:54;17.80;99.90
15103;DHT22;7652;53.584;9.998;2023-07-31T17:02:16;17.80;99.90
15103;DHT22;7652;53.584;9.998;2023-07-31T17:05:38;17.80;99.90
15103;DHT22;7652;53.584;9.998;2023-07-31T17:09:00;17.80;99.90
15103;DHT22;7652;53.584;9.998;2023-07-31T17:12:23;17.80;99.90
15103;DHT22;7652;53.584;9.998;2023-07-31T17:15:44;17.80;99.90
15103;DHT22;7652;53.584;9.998;2023-07-31T17:19:05;17.80;99.90
15103;DHT22;7652;53.584;9.998;2023-07-31T17:22:27;17.80;99.90
15103;DHT22;7652;53.584;9.998;2023-07-31T17:26:07;17.90;99.90
15103;DHT22;7652;53.584;9.998;2023-07-31T17:29:34;17.90;99.90
15103;DHT22;7652;53.584;9.998;2023-07-31T17:32:55;17.90;99.90
15103;DHT22;7652;53.584;9.998;2023-07-31T17:36:17;18.00;99.90
15103;DHT22;7652;53.584;9.998;2023-07-31T17:39:38;18.00;99.90
15103;DHT22;7652;53.584;9.998;2023-07-31T17:43:00;18.00;99.90
15103;DHT22;7652;53.584;9.998;2023-07-31T17:46:23;18.00;99.90
15103;DHT22;7652;53.584;9.998;2023-07-31T17:49:44;18.00;99.90
15103;DHT22;7652;53.584;9.998;2023-07-31T17:53:05;18.00;99.90
15103;DHT22;7652;53.584;9.998;2023-07-31T17:56:27;18.00;99.90
15103;DHT22;7652;53.584;9.998;2023-07-31T17:59:49;18.00;99.90
15103;DHT22;7652;53.584;9.998;2023-07-31T18:03:12;18.00;99.90
15103;DHT22;7652;53.584;9.998;2023-07-31T18:06:34;18.00;99.90
15103;DHT22;7652;53.584;9.998;2023-07-31T18:09:56;18.00;99.90
15103;DHT22;7652;53.584;9.998;2023-07-31T18:13:17;18.00;99.90
15103;DHT22;7652;53.584;9.998;2023-07-31T18:16:39;18.00;99.90
15103;DHT22;7652;53.584;9.998;2023-07-31T18:20:02;18.00;99.90
15103;DHT22;7652;53.584;9.998;2023-07-31T18:23:26;18.00;99.90
15103;DHT22;7652;53.584;9.998;2023-07-31T18:26:47;18.00;99.90
15103;DHT22;7652;53.584;9.998;2023-07-31T18:30:09;18.00;99.90
15103;DHT22;7652;53.584;9.998;2023-07-31T18:33:31;18.00;99.90
15103;DHT22;7652;53.584;9.998;2023-07-31T18:36:55;18.00;99.90
15103;DHT22;7652;53.584;9.998;2023-07-31T18:40:17;18.00;99.90
15103;DHT22;7652;53.584;9.998;2023-07-31T18:43:38;18.00;99.90
15103;DHT22;7652;53.584;9.998;2023-07-31T18:47:00;17.90;99.90
15103;DHT22;7652;53.584;9.998;2023-07-31T18:50:22;17.80;99.90
15103;DHT22;7652;53.584;9.998;2023-07-31T18:53:45;17.80;99.90
15103;DHT22;7652;53.584;9.998;2023-07-31T18:57:06;17.80;99.90
15103;DHT22;7652;53.584;9.998;2023-07-31T19:00:28;17.80;99.90
15103;DHT22;7652;53.584;9.998;2023-07-31T19:03:50;17.80;99.90
15103;DHT22;7652;53.584;9.998;2023-07-31T19:07:12;17.80;99.90
15103;DHT22;7652;53.584;9.998;2023-07-31T19:10:35;17.80;99.90
15103;DHT22;7652;53.584;9.998;2023-07-31T19:13:57;17.80;99.90
15103;DHT22;7652;53.584;9.998;2023-07-31T19:17:19;17.80;99.90
15103;DHT22;7652;53.584;9.998;2023-07-31T19:20:41;17.80;99.90
15103;DHT22;7652;53.584;9.998;2023-07-31T19:24:03;17.80;99.90
15103;DHT22;7652;53.584;9.998;2023-07-31T19:27:26;17.80;99.90
15103;DHT22;7652;53.584;9.998;2023-07-31T19:30:47;17.80;99.90
15103;DHT22;7652;53.584;9.998;2023-07-31T19:34:09;17.80;99.90
15103;DHT22;7652;53.584;9.998;2023-07-31T19:37:30;17.80;99.90
15103;DHT22;7652;53.584;9.998;2023-07-31T19:40:52;17.80;99.90
15103;DHT22;7652;53.584;9.998;2023-07-31T19:44:15;17.80;99.90
15103;DHT22;7652;53.584;9.998;2023-07-31T19:47:36;17.80;99.90
15103;DHT22;7652;53.584;9.998;2023-07-31T19:50:58;17.80;99.90
15103;DHT22;7652;53.584;9.998;2023-07-31T19:54:19;17.80;99.90
15103;DHT22;7652;53.584;9.998;2023-07-31T19:57:41;17.80;99.90
15103;DHT22;7652;53.584;9.998;2023-07-31T20:01:04;17.80;99.90
15103;DHT22;7652;53.584;9.998;2023-07-31T20:04:25;17.70;99.90
15103;DHT22;7652;53.584;9.998;2023-07-31T20:07:46;17.70;99.90
15103;DHT22;7652;53.584;9.998;2023-07-31T20:11:08;17.70;99.90
15103;DHT22;7652;53.584;9.998;2023-07-31T20:14:30;17.70;99.90
15103;DHT22;7652;53.584;9.998;2023-07-31T20:17:54;17.70;99.90
15103;DHT22;7652;53.584;9.998;2023-07-31T20:21:15;17.70;99.90
15103;DHT22;7652;53.584;9.998;2023-07-31T20:24:37;17.70;99.90
15103;DHT22;7652;53.584;9.998;2023-07-31T20:27:58;17.70;99.90
15103;DHT22;7652;53.584;9.998;2023-07-31T20:31:19;17.70;99.90
15103;DHT22;7652;53.584;9.998;2023-07-31T20:34:42;17.70;99.90
15103;DHT22;7652;53.584;9.998;2023-07-31T20:38:04;17.70;99.90
15103;DHT22;7652;53.584;9.998;2023-07-31T20:41:25;17.60;99.90
15103;DHT22;7652;53.584;9.998;2023-07-31T20:44:47;17.60;99.90
15103;DHT22;7652;53.584;9.998;2023-07-31T20:48:08;17.70;99.90
15103;DHT22;7652;53.584;9.998;2023-07-31T20:51:33;17.60;99.90
15103;DHT22;7652;53.584;9.998;2023-07-31T20:54:56;17.60;99.90
15103;DHT22;7652;53.584;9.998;2023-07-31T20:58:17;17.60;99.90
15103;DHT22;7652;53.584;9.998;2023-07-31T21:01:39;17.60;99.90
15103;DHT22;7652;53.584;9.998;2023-07-31T21:05:01;17.60;99.90
15103;DHT22;7652;53.584;9.998;2023-07-31T21:08:24;17.60;99.90
15103;DHT22;7652;53.584;9.998;2023-07-31T21:11:46;17.60;99.90
15103;DHT22;7652;53.584;9.998;2023-07-31T21:15:08;17.60;99.90
15103;DHT22;7652;53.584;9.998;2023-07-31T21:18:30;17.50;99.90
15103;DHT22;7652;53.584;9.998;2023-07-31T21:21:51;17.60;99.90
15103;DHT22;7652;53.584;9.998;2023-07-31T21:25:14;17.50;99.90
15103;DHT22;7652;53.584;9.998;2023-07-31T21:28:36;17.50;99.90
15103;DHT22;7652;53.584;9.998;2023-07-31T21:31:57;17.40;99.90
15103;DHT22;7652;53.584;9.998;2023-07-31T21:35:19;17.40;99.90
15103;DHT22;7652;53.584;9.998;2023-07-31T21:38:40;17.30;99.90